METAR Data
IDs: Format: Raw Decoded Include TAF

Data at: 0941 UTC 21 Oct 2019

EDSB 210920Z 24005KT 210V270 CAVOK 16/14 Q1018
EDSB 210850Z 24006KT 210V270 CAVOK 16/14 Q1018
EDSB 210820Z 22007KT CAVOK 15/14 Q1017
EDSB 210750Z 22005KT 190V250 CAVOK 15/14 Q1017
EDSB 210720Z 20006KT 170V230 CAVOK 15/14 Q1017
EDSB 210650Z 20004KT CAVOK 14/14 Q1016
EDSB 210620Z VRB02KT CAVOK 14/14 Q1016
EDSB 210550Z 21003KT CAVOK 14/14 Q1015
EDSB 210520Z 23003KT 9999 FEW048 BKN073 15/14 Q1015
EDSB 210450Z 26004KT 230V290 9999 FEW043 BKN071 15/14 Q1015
EDSB 210420Z VRB02KT 8000 FEW044 SCT072 14/14 Q1014
EDSB 210350Z VRB02KT 9000 FEW044 OVC073 14/13 Q1014
EDSB 210320Z VRB01KT CAVOK 14/14 Q1013
EDSB 210250Z 23003KT 9999 FEW044 SCT062 14/13 Q1013
EDSB 210220Z AUTO 22005KT 9999 // SCT080/// BKN120/// 14/14 Q1013
EDSB 210150Z AUTO VRB02KT 8000 // FEW052/// BKN098/// 14/14 Q1013
EDSB 210120Z AUTO 22003KT 170V280 9999 // FEW067/// BKN083/// OVC100/// 15/14 Q1013
EDSB 210050Z AUTO 22007KT 9000 // FEW091/// OVC120/// 14/14 Q1013
EDSB 210020Z AUTO 19003KT 140V220 8000 // FEW120/// BKN140/// OVC190/// 14/14 Q1011
EDSB 202350Z AUTO 19003KT 160V290 8000 // BKN200/// 14/13 Q1011
EDSB 202320Z AUTO 08005KT 7000 // FEW070/// 14/14 Q1010
EDSB 202250Z AUTO 11005KT 080V140 9999 // FEW049/// BKN056/// BKN067/// 15/14 Q1012
EDSB 202220Z AUTO 16005KT 110V280 9000 // SCT009/// BKN046/// OVC053/// 15/14 Q1013
EDSB 202150Z AUTO 13005KT 100V190 9999 // FEW010/// BKN063/// OVC079/// 15/14 Q1013
EDSB 202120Z 29008KT CAVOK 15/14 Q1012
EDSB 202050Z 32006KT CAVOK 15/14 Q1009
EDSB 202020Z 02007KT CAVOK 15/14 Q1008
EDSB 201950Z 05008KT CAVOK 15/14 Q1008
EDSB 201920Z 04007KT CAVOK 15/14 Q1008
EDSB 201850Z 05006KT CAVOK 15/14 Q1008
EDSB 201820Z 05006KT CAVOK 15/14 Q1008
EDSB 201750Z 01004KT 330V050 9000 FEW016 15/14 Q1008
EDSB 201720Z 32004KT CAVOK 15/14 Q1008
EDSB 201650Z 09003KT 070V130 CAVOK 16/15 Q1008
EDSB 201620Z 10003KT 070V130 CAVOK 16/15 Q1008
EDSB 201550Z VRB02KT CAVOK 16/15 Q1008
EDSB 201520Z VRB02KT CAVOK 16/14 Q1008
EDSB 201450Z 35005KT CAVOK 17/15 Q1007
EDSB 201420Z 34004KT CAVOK 17/14 Q1007
EDSB 201350Z VRB02KT CAVOK 17/14 Q1007
EDSB 201320Z VRB02KT 9999 SCT011 17/15 Q1007
EDSB 201250Z VRB02KT 9999 BKN011 16/14 Q1007
EDSB 201220Z VRB02KT 9000 SCT009 BKN012 17/14 Q1007
EDSB 201150Z VRB02KT 9000 BKN009 16/14 Q1007
EDSB 201120Z 27003KT 200V320 9000 BKN009 16/14 Q1007
EDSB 201050Z 22003KT 170V260 9000 BKN010 16/14 Q1008
EDSB 201020Z VRB02KT 9000 BKN008 16/14 Q1007
EDSB 200950Z 03004KT 340V070 9000 SCT006 BKN012 15/14 Q1007

TAF EDSB 210500Z 2106/2206 VRB03KT 9999 SCT040
  BECMG 2106/2109 21007KT
  BECMG 2115/2118 VRB03KT
  TEMPO 2117/2122 4000 RA BKN014
  TEMPO 2200/2206 2000 BCFG